Time;durP1;ratioP1;P1;durP2;ratioP2;P2;SDS_P1;SDS_P2;PMS_P1;PMS_P2;Temp;Humidity;BMP_temperature;BMP_pressure;BME280_temperature;BME280_humidity;BME280_pressure;Samples;Min_cycle;Max_cycle;Signal;HPM_P1;HPM_P2
2023/11/26 08:06:26;;;;;;;5.07;3.10;;;1.80;98.00;;;;;;5193919;23;20238;-91
2023/11/26 08:08:53;;;;;;;3.77;2.80;;;1.80;98.10;;;;;;5024933;28;20895;-91
2023/11/26 08:11:34;;;;;;;5.60;2.73;;;1.80;98.60;;;;;;5232264;23;20218;-89
2023/11/26 08:14:04;;;;;;;6.10;3.00;;;2.00;97.90;;;;;;5052026;28;20198;-90
2023/11/26 08:16:32;;;;;;;4.77;3.00;;;2.10;97.90;;;;;;5023393;28;20230;-90
2023/11/26 08:19:05;;;;;;;5.10;2.80;;;2.20;97.10;;;;;;5028407;28;20205;-90
2023/11/26 08:24:39;;;;;;;4.27;2.73;;;2.30;97.00;;;;;;5062815;28;20210;-90
2023/11/26 08:29:44;;;;;;;3.53;3.17;;;2.50;96.40;;;;;;5843228;22;20208;-93
2023/11/26 08:32:41;;;;;;;3.03;2.73;;;2.70;96.20;;;;;;5410234;22;20236;-90
2023/11/26 08:37:44;;;;;;;3.60;3.20;;;2.80;96.00;;;;;;6085232;22;21373;-91
2023/11/26 08:40:13;;;;;;;3.83;2.70;;;2.70;96.00;;;;;;5034343;28;20206;-89
2023/11/26 08:42:41;;;;;;;3.20;2.80;;;2.70;96.30;;;;;;5033355;28;20663;-90
2023/11/26 08:45:09;;;;;;;3.93;2.80;;;2.60;96.50;;;;;;5016211;28;20225;-90
2023/11/26 08:47:36;;;;;;;5.17;2.93;;;2.80;96.70;;;;;;5026242;28;20227;-89
2023/11/26 08:50:04;;;;;;;4.60;2.77;;;2.80;96.60;;;;;;5010656;28;20194;-89
2023/11/26 08:52:33;;;;;;;6.10;2.80;;;2.90;95.80;;;;;;5019885;28;20230;-89
2023/11/26 08:55:03;;;;;;;4.60;2.60;;;2.90;95.30;;;;;;5029966;28;20203;-89
2023/11/26 08:57:30;;;;;;;5.33;2.80;;;3.00;95.60;;;;;;5014558;28;20198;-89
2023/11/26 08:59:57;;;;;;;4.77;2.90;;;3.00;96.10;;;;;;5022642;28;20237;-89
2023/11/26 09:02:25;;;;;;;3.87;2.70;;;3.20;96.50;;;;;;5024442;28;20205;-89
2023/11/26 09:04:52;;;;;;;3.27;2.80;;;3.80;95.70;;;;;;5012310;28;20199;-92
2023/11/26 09:07:20;;;;;;;5.30;2.50;;;4.00;94.40;;;;;;5010269;28;20222;-92
2023/11/26 09:09:47;;;;;;;3.60;2.40;;;4.00;94.00;;;;;;5013500;28;20559;-92
2023/11/26 09:12:16;;;;;;;5.73;2.40;;;3.80;93.60;;;;;;5027450;28;20237;-92
2023/11/26 09:14:45;;;;;;;3.50;2.50;;;3.60;94.80;;;;;;5017527;28;20200;-92
2023/11/26 09:17:12;;;;;;;5.53;2.87;;;3.50;94.40;;;;;;5008013;28;20202;-89
2023/11/26 09:19:39;;;;;;;3.00;2.50;;;3.30;94.70;;;;;;5019900;28;20203;-91
2023/11/26 09:22:06;;;;;;;3.73;2.47;;;3.40;94.70;;;;;;5009104;28;20222;-91
2023/11/26 09:24:33;;;;;;;5.60;2.77;;;3.40;94.70;;;;;;5002163;28;20219;-89
2023/11/26 09:27:00;;;;;;;5.00;3.10;;;3.30;95.50;;;;;;5028933;28;20658;-89
2023/11/26 09:29:36;;;;;;;4.33;3.00;;;3.60;94.80;;;;;;5030556;28;20703;-92
2023/11/26 09:32:03;;;;;;;3.43;2.53;;;3.70;94.80;;;;;;5007638;28;20580;-89
2023/11/26 09:34:30;;;;;;;4.60;2.73;;;3.80;93.90;;;;;;5037739;28;20202;-92
2023/11/26 09:36:58;;;;;;;4.00;2.43;;;3.90;94.10;;;;;;5012059;28;20206;-92
2023/11/26 09:39:25;;;;;;;4.43;2.50;;;4.10;94.10;;;;;;5031927;28;20269;-92
2023/11/26 09:41:55;;;;;;;6.30;3.00;;;4.10;93.50;;;;;;5033486;28;20198;-92
2023/11/26 09:44:21;;;;;;;5.33;2.70;;;4.00;92.60;;;;;;5458539;22;20275;-93
2023/11/26 09:51:55;;;;;;;5.40;2.70;;;3.40;93.60;;;;;;5141601;22;20218;-90
2023/11/26 09:54:23;;;;;;;4.90;2.97;;;3.30;94.50;;;;;;5035268;28;20247;-93
2023/11/26 09:56:55;;;;;;;3.37;2.50;;;3.10;94.70;;;;;;5038265;28;20199;-91
2023/11/26 09:59:30;;;;;;;4.97;3.00;;;3.00;94.60;;;;;;5045023;28;20214;-90
2023/11/26 10:12:22;;;;;;;4.03;2.70;;;3.00;95.50;;;;;;5529659;22;20247;-91
2023/11/26 10:15:05;;;;;;;6.00;2.90;;;3.00;96.00;;;;;;5077342;28;20169;-90
2023/11/26 10:17:32;;;;;;;5.87;2.93;;;3.10;95.60;;;;;;5215326;22;20225;-89
2023/11/26 10:20:17;;;;;;;3.50;2.70;;;3.30;95.60;;;;;;5081080;28;20193;-89
2023/11/26 10:22:48;;;;;;;4.30;2.90;;;3.50;94.80;;;;;;5070432;28;20580;-82
2023/11/26 10:25:15;;;;;;;4.40;2.80;;;3.50;94.80;;;;;;5050122;28;20221;-84
2023/11/26 10:27:46;;;;;;;3.53;2.40;;;3.60;94.80;;;;;;5065609;28;20244;-82
2023/11/26 10:30:24;;;;;;;3.07;2.50;;;3.50;94.80;;;;;;5038710;28;20710;-84
2023/11/26 10:32:59;;;;;;;4.70;2.90;;;3.40;94.70;;;;;;5050358;28;20197;-85
2023/11/26 10:35:26;;;;;;;4.73;2.40;;;3.30;95.60;;;;;;5063738;28;20197;-85
2023/11/26 10:38:09;;;;;;;6.23;2.73;;;3.20;96.00;;;;;;5065397;28;20235;-86
2023/11/26 10:40:36;;;;;;;3.00;2.67;;;3.40;95.70;;;;;;5061576;28;20201;-83
2023/11/26 10:43:07;;;;;;;5.30;2.53;;;3.40;95.50;;;;;;5054351;28;20197;-83
2023/11/26 10:45:35;;;;;;;3.70;2.43;;;3.40;95.60;;;;;;5052267;28;20243;-83
2023/11/26 10:48:09;;;;;;;5.30;2.50;;;3.40;94.80;;;;;;5066338;28;20220;-84
2023/11/26 10:50:41;;;;;;;5.83;2.60;;;3.50;95.20;;;;;;5066050;28;20198;-82
2023/11/26 10:53:21;;;;;;;3.30;2.20;;;3.40;94.70;;;;;;5049736;28;20612;-85
2023/11/26 10:55:51;;;;;;;4.87;2.33;;;3.40;95.20;;;;;;5051037;28;20194;-81
2023/11/26 10:58:22;;;;;;;5.53;2.57;;;3.40;94.70;;;;;;5053702;28;20198;-86
2023/11/26 11:00:52;;;;;;;3.23;2.40;;;3.50;95.30;;;;;;5050450;28;20206;-81
2023/11/26 11:03:19;;;;;;;2.80;2.50;;;3.50;95.00;;;;;;5031490;28;20228;-82
2023/11/26 11:05:47;;;;;;;3.47;2.17;;;3.30;94.70;;;;;;5050263;28;20256;-83
2023/11/26 11:08:15;;;;;;;3.73;2.03;;;3.30;95.00;;;;;;5051800;28;20228;-83
2023/11/26 11:10:55;;;;;;;3.33;2.00;;;3.30;94.70;;;;;;5051016;28;20658;-83
2023/11/26 11:13:24;;;;;;;3.77;2.60;;;3.10;95.50;;;;;;5051869;28;20674;-83
2023/11/26 11:15:52;;;;;;;4.93;2.50;;;3.20;95.50;;;;;;5050854;28;20198;-85
2023/11/26 11:18:44;;;;;;;3.27;2.47;;;3.20;95.60;;;;;;5051445;28;20206;-84
2023/11/26 11:21:12;;;;;;;3.63;2.33;;;3.10;95.70;;;;;;5051488;28;20866;-84
2023/11/26 11:23:41;;;;;;;6.57;2.83;;;3.20;95.60;;;;;;5032376;28;20598;-85
2023/11/26 11:26:08;;;;;;;4.80;2.67;;;3.20;95.90;;;;;;5053310;28;20197;-84
2023/11/26 11:28:38;;;;;;;5.20;2.50;;;3.10;96.10;;;;;;5052591;28;20225;-84
2023/11/26 11:31:05;;;;;;;4.47;2.70;;;3.10;96.40;;;;;;5052752;28;20194;-85
2023/11/26 11:33:32;;;;;;;4.80;2.60;;;3.10;96.20;;;;;;5048999;28;20559;-83
2023/11/26 11:35:59;;;;;;;6.30;3.13;;;3.10;96.60;;;;;;5050369;28;20202;-84
2023/11/26 11:38:26;;;;;;;4.13;2.60;;;3.00;96.70;;;;;;5046833;28;20781;-83
2023/11/26 11:41:13;;;;;;;4.90;2.37;;;3.10;96.40;;;;;;5050859;28;20251;-85
2023/11/26 11:43:42;;;;;;;3.70;2.40;;;3.10;96.20;;;;;;5052169;28;20623;-85
2023/11/26 11:46:45;;;;;;;4.43;2.50;;;3.10;96.10;;;;;;5047678;28;20540;-84
2023/11/26 11:49:12;;;;;;;3.90;2.70;;;3.10;96.00;;;;;;5045886;28;20212;-84
2023/11/26 11:51:42;;;;;;;6.87;3.10;;;3.00;96.60;;;;;;5044348;28;20221;-85
2023/11/26 11:54:52;;;;;;;4.00;2.60;;;3.00;96.60;;;;;;5047552;28;20240;-84
2023/11/26 11:57:23;;;;;;;4.47;2.80;;;3.10;96.70;;;;;;5046729;28;20206;-86
2023/11/26 11:59:52;;;;;;;2.80;2.20;;;3.10;97.30;;;;;;5047795;28;20185;-85
2023/11/26 12:02:22;;;;;;;4.03;2.60;;;3.20;97.60;;;;;;5054955;28;20190;-83
2023/11/26 12:04:50;;;;;;;3.53;2.60;;;3.40;97.60;;;;;;5053357;28;20194;-83
2023/11/26 12:07:18;;;;;;;6.97;3.00;;;3.40;97.00;;;;;;5050508;28;20229;-86
2023/11/26 12:09:46;;;;;;;3.13;2.50;;;3.50;96.20;;;;;;5048599;28;20210;-84
2023/11/26 12:12:18;;;;;;;3.27;2.50;;;3.50;95.90;;;;;;5051088;28;20244;-89
2023/11/26 12:14:48;;;;;;;5.77;2.93;;;3.40;96.30;;;;;;5047939;28;20197;-87
2023/11/26 12:17:17;;;;;;;4.10;2.63;;;3.60;96.20;;;;;;5017221;28;20220;-84
2023/11/26 12:19:45;;;;;;;4.83;2.70;;;3.60;96.00;;;;;;5056618;28;20201;-86
2023/11/26 12:22:14;;;;;;;3.73;2.60;;;3.60;95.80;;;;;;5030190;28;20229;-86
2023/11/26 12:24:41;;;;;;;3.10;2.57;;;3.60;95.00;;;;;;5050566;28;20284;-82
2023/11/26 12:27:20;;;;;;;3.93;2.60;;;3.60;95.30;;;;;;5048127;28;20218;-83
2023/11/26 12:29:47;;;;;;;4.90;2.90;;;3.70;95.30;;;;;;5043510;28;20209;-83
2023/11/26 12:32:20;;;;;;;4.27;2.60;;;4.10;96.60;;;;;;5048128;28;20211;-83
2023/11/26 12:34:49;;;;;;;3.50;2.30;;;4.20;94.90;;;;;;5048125;28;20205;-83
2023/11/26 12:37:16;;;;;;;3.20;2.53;;;4.20;93.90;;;;;;5031792;28;20198;-86
2023/11/26 12:39:44;;;;;;;6.67;2.70;;;4.10;94.00;;;;;;5046625;28;20202;-84
2023/11/26 12:42:11;;;;;;;2.80;2.40;;;4.20;93.50;;;;;;5051364;28;20556;-83
2023/11/26 12:44:38;;;;;;;2.00;1.80;;;4.10;93.10;;;;;;5044012;28;20257;-83
2023/11/26 12:47:09;;;;;;;2.33;2.10;;;3.90;93.60;;;;;;5045910;28;20197;-84
2023/11/26 12:49:38;;;;;;;3.27;2.50;;;3.90;94.00;;;;;;5046426;28;20593;-85
2023/11/26 12:52:07;;;;;;;3.73;2.47;;;3.80;94.20;;;;;;5046305;28;20224;-85
2023/11/26 12:54:34;;;;;;;4.23;2.40;;;3.90;94.10;;;;;;5042135;28;20198;-83
2023/11/26 12:57:02;;;;;;;3.47;2.23;;;4.00;93.80;;;;;;5049618;28;20225;-85
2023/11/26 12:59:33;;;;;;;4.27;2.40;;;3.90;94.20;;;;;;5048322;28;20225;-85
2023/11/26 13:02:12;;;;;;;2.93;2.13;;;4.00;94.00;;;;;;5026946;28;20573;-86
2023/11/26 13:04:41;;;;;;;2.33;2.13;;;4.20;94.00;;;;;;5044985;28;20186;-85
2023/11/26 13:07:08;;;;;;;3.47;2.30;;;4.30;93.70;;;;;;5050745;28;20567;-85
2023/11/26 13:09:47;;;;;;;3.93;2.37;;;4.10;93.30;;;;;;5035062;28;20291;-85
2023/11/26 13:12:14;;;;;;;3.97;2.10;;;4.00;93.10;;;;;;5041135;28;20203;-85
2023/11/26 13:14:41;;;;;;;2.60;2.30;;;4.00;92.70;;;;;;5043172;28;20205;-86
2023/11/26 13:17:08;;;;;;;4.53;2.50;;;3.90;93.10;;;;;;5033458;28;20264;-86
2023/11/26 13:19:36;;;;;;;2.37;2.07;;;3.90;93.10;;;;;;5043035;28;20204;-86
2023/11/26 13:22:04;;;;;;;3.50;2.20;;;4.00;93.30;;;;;;5029894;28;20278;-85
2023/11/26 13:24:31;;;;;;;5.60;2.33;;;4.10;93.50;;;;;;5044482;28;20198;-86
2023/11/26 13:26:58;;;;;;;2.63;2.43;;;4.30;93.80;;;;;;5041920;28;20205;-86
2023/11/26 13:29:25;;;;;;;2.97;2.37;;;4.40;93.30;;;;;;5042661;28;20239;-87
2023/11/26 13:31:51;;;;;;;3.73;2.50;;;4.20;93.30;;;;;;5042700;28;20193;-85
2023/11/26 13:34:19;;;;;;;5.13;2.40;;;4.20;93.60;;;;;;5045031;28;20189;-84
2023/11/26 13:36:47;;;;;;;3.27;2.23;;;4.10;93.80;;;;;;5043286;28;20637;-84
2023/11/26 13:39:19;;;;;;;2.77;2.50;;;3.90;93.40;;;;;;5042955;28;20226;-84
2023/11/26 13:41:46;;;;;;;5.00;2.87;;;3.80;93.70;;;;;;5050295;28;20747;-84
2023/11/26 13:44:13;;;;;;;4.53;2.70;;;3.60;94.80;;;;;;5046212;28;20196;-84
2023/11/26 13:46:40;;;;;;;3.17;2.53;;;3.60;94.80;;;;;;5041609;28;20199;-85
2023/11/26 13:49:08;;;;;;;4.47;2.43;;;3.60;94.80;;;;;;5047924;28;20218;-84
2023/11/26 13:51:34;;;;;;;4.33;2.47;;;3.60;94.80;;;;;;5044375;28;20844;-84
2023/11/26 13:54:02;;;;;;;4.03;3.00;;;3.60;94.80;;;;;;5047145;28;20194;-85
2023/11/26 13:56:30;;;;;;;3.87;2.80;;;3.50;94.70;;;;;;5030575;28;20650;-84
2023/11/26 13:58:58;;;;;;;3.33;2.40;;;3.40;95.00;;;;;;5049661;28;20206;-87
2023/11/26 14:01:25;;;;;;;4.53;2.67;;;3.40;95.30;;;;;;5048533;28;20209;-87
2023/11/26 14:03:51;;;;;;;3.43;2.60;;;3.40;95.20;;;;;;5045346;28;20217;-89
2023/11/26 14:06:17;;;;;;;3.63;2.77;;;3.40;95.30;;;;;;5027709;28;20194;-84
2023/11/26 14:08:44;;;;;;;3.30;2.80;;;3.40;95.40;;;;;;5053372;28;20209;-84
2023/11/26 14:11:12;;;;;;;4.23;2.77;;;3.30;95.90;;;;;;5043715;28;20551;-85
2023/11/26 14:13:40;;;;;;;4.67;2.90;;;3.40;96.00;;;;;;5044159;28;20563;-84
2023/11/26 14:16:07;;;;;;;6.00;2.80;;;3.40;96.70;;;;;;5048277;28;20190;-84
2023/11/26 14:18:34;;;;;;;3.80;2.80;;;3.30;96.10;;;;;;5051989;28;20213;-87
2023/11/26 14:21:01;;;;;;;3.50;2.90;;;3.30;96.80;;;;;;5043265;28;20558;-84
2023/11/26 14:23:27;;;;;;;8.77;3.30;;;3.30;96.60;;;;;;5047759;28;20197;-87
2023/11/26 14:25:54;;;;;;;5.00;3.30;;;3.30;96.40;;;;;;5043338;28;20356;-86
2023/11/26 14:28:21;;;;;;;3.77;2.80;;;3.30;96.50;;;;;;5040934;28;20524;-84
2023/11/26 14:30:49;;;;;;;3.53;2.93;;;3.40;96.00;;;;;;5044647;28;20197;-83
2023/11/26 14:33:18;;;;;;;5.93;3.10;;;3.50;95.50;;;;;;5047259;28;20197;-83
2023/11/26 14:35:44;;;;;;;5.30;3.00;;;3.40;95.30;;;;;;5031615;28;20213;-85
2023/11/26 14:38:12;;;;;;;3.97;2.83;;;3.40;95.70;;;;;;5030302;28;20194;-85
2023/11/26 14:40:39;;;;;;;5.67;3.40;;;3.40;96.00;;;;;;5046402;28;20194;-86
2023/11/26 14:43:06;;;;;;;3.27;2.97;;;3.40;95.80;;;;;;5039473;28;20204;-82
2023/11/26 14:45:33;;;;;;;4.83;3.10;;;3.40;96.00;;;;;;5031214;28;20197;-81
2023/11/26 14:48:01;;;;;;;4.37;3.30;;;3.40;96.00;;;;;;5046112;28;20204;-86
2023/11/26 14:50:28;;;;;;;6.97;3.30;;;3.40;96.00;;;;;;5046659;28;20205;-85
2023/11/26 14:52:55;;;;;;;4.63;3.33;;;3.40;95.80;;;;;;5044451;28;20206;-85
2023/11/26 14:55:22;;;;;;;3.60;2.90;;;3.20;95.80;;;;;;5025282;28;20342;-88
2023/11/26 14:57:49;;;;;;;5.23;3.30;;;3.20;96.40;;;;;;5047673;28;20208;-85
2023/11/26 15:00:16;;;;;;;3.93;3.20;;;3.20;96.30;;;;;;5049362;28;20194;-85
2023/11/26 15:02:44;;;;;;;5.47;3.50;;;3.20;96.50;;;;;;5052200;28;20565;-85
2023/11/26 15:05:12;;;;;;;4.90;2.97;;;3.10;96.60;;;;;;5051865;28;20206;-84
2023/11/26 15:07:40;;;;;;;4.17;3.27;;;3.00;97.00;;;;;;5049966;28;20202;-85
2023/11/26 15:10:08;;;;;;;3.53;3.20;;;3.10;97.30;;;;;;5028436;28;20218;-86
2023/11/26 15:12:35;;;;;;;5.63;3.60;;;3.20;96.40;;;;;;5048253;28;20195;-88
2023/11/26 15:15:03;;;;;;;4.07;2.93;;;3.20;96.50;;;;;;5042506;28;20208;-85
2023/11/26 15:17:31;;;;;;;4.73;3.30;;;3.20;96.30;;;;;;5045949;28;20198;-85
2023/11/26 15:19:57;;;;;;;5.63;3.17;;;3.20;96.20;;;;;;5028441;28;21016;-86
2023/11/26 15:22:26;;;;;;;4.40;3.50;;;3.20;96.20;;;;;;5045795;28;20197;-85
2023/11/26 15:24:53;;;;;;;7.03;3.53;;;3.10;96.50;;;;;;5031516;28;20201;-85
2023/11/26 15:27:20;;;;;;;4.93;3.23;;;3.10;96.50;;;;;;5052407;28;20538;-86
2023/11/26 15:29:46;;;;;;;4.67;3.30;;;3.00;96.90;;;;;;5050822;28;20241;-85
2023/11/26 15:32:15;;;;;;;5.87;3.33;;;3.00;97.10;;;;;;5026101;28;20202;-87
2023/11/26 15:34:42;;;;;;;5.17;3.57;;;3.00;97.00;;;;;;5046976;28;20202;-85
2023/11/26 15:37:10;;;;;;;5.47;3.47;;;3.00;97.30;;;;;;5048801;28;20214;-87
2023/11/26 15:39:39;;;;;;;6.17;3.33;;;3.00;97.00;;;;;;5050149;28;20654;-87
2023/11/26 15:42:06;;;;;;;5.80;3.77;;;2.90;96.70;;;;;;5051527;28;20205;-89
2023/11/26 15:44:32;;;;;;;5.57;3.20;;;3.00;96.90;;;;;;5048096;28;20893;-90
2023/11/26 15:46:59;;;;;;;3.43;3.13;;;2.90;97.00;;;;;;5221419;22;20242;-91
2023/11/26 15:49:26;;;;;;;6.17;3.13;;;3.00;97.20;;;;;;5072678;28;20712;-90
2023/11/26 15:51:54;;;;;;;6.23;3.23;;;3.00;96.70;;;;;;5047784;28;20919;-87
2023/11/26 15:54:21;;;;;;;4.73;3.10;;;3.00;96.60;;;;;;5071583;28;20209;-87
2023/11/26 15:56:52;;;;;;;7.07;3.53;;;2.90;97.10;;;;;;5064840;28;20201;-85
2023/11/26 15:59:20;;;;;;;7.77;3.40;;;2.90;96.70;;;;;;5067295;28;20483;-88
2023/11/26 16:01:47;;;;;;;5.07;3.20;;;2.80;97.00;;;;;;5052826;28;20649;-86
2023/11/26 16:04:14;;;;;;;5.27;3.40;;;2.80;97.20;;;;;;5068205;28;20194;-90
2023/11/26 16:06:41;;;;;;;4.83;3.50;;;2.70;97.20;;;;;;5066019;28;20200;-87
2023/11/26 16:09:10;;;;;;;6.43;3.50;;;2.80;97.10;;;;;;5067355;28;20569;-89
2023/11/26 16:11:37;;;;;;;5.17;3.07;;;2.80;97.20;;;;;;5065839;28;20291;-84
2023/11/26 16:14:05;;;;;;;4.83;3.37;;;2.70;97.20;;;;;;5066119;28;20194;-85
2023/11/26 16:16:32;;;;;;;6.17;3.60;;;2.70;97.20;;;;;;5066066;28;20677;-85
2023/11/26 16:18:58;;;;;;;5.43;3.33;;;2.70;97.30;;;;;;5050553;28;20372;-86
2023/11/26 16:21:28;;;;;;;5.00;3.50;;;2.70;97.50;;;;;;5047736;28;20220;-84
2023/11/26 16:23:57;;;;;;;6.67;3.33;;;2.80;97.20;;;;;;5064628;28;20205;-84
2023/11/26 16:26:24;;;;;;;5.37;3.40;;;2.80;97.20;;;;;;5045914;28;20210;-83
2023/11/26 16:28:52;;;;;;;5.43;3.30;;;2.80;97.10;;;;;;5066821;28;20585;-84
2023/11/26 16:31:23;;;;;;;6.47;3.23;;;2.70;97.20;;;;;;5048446;28;20206;-84
2023/11/26 16:33:51;;;;;;;4.67;3.50;;;2.50;97.50;;;;;;5067022;28;20205;-84
2023/11/26 16:36:20;;;;;;;7.07;3.60;;;2.40;97.90;;;;;;5070770;28;20198;-83
2023/11/26 16:38:48;;;;;;;5.53;3.80;;;2.40;98.40;;;;;;5063211;28;20228;-83
2023/11/26 16:41:16;;;;;;;5.90;3.83;;;2.20;98.70;;;;;;5069850;28;20199;-83
2023/11/26 16:43:46;;;;;;;5.67;4.20;;;2.20;99.10;;;;;;5063401;28;20608;-83
2023/11/26 16:46:14;;;;;;;8.10;3.93;;;2.20;99.30;;;;;;5051182;28;20208;-83
2023/11/26 16:48:44;;;;;;;7.57;4.10;;;2.20;99.50;;;;;;5043274;28;20225;-85
2023/11/26 16:51:11;;;;;;;7.00;4.27;;;2.10;99.40;;;;;;5044914;28;20217;-84
2023/11/26 16:53:38;;;;;;;6.00;4.57;;;2.10;99.60;;;;;;5052251;28;20291;-87
2023/11/26 16:56:06;;;;;;;7.30;3.67;;;2.00;99.60;;;;;;5066837;28;20558;-84
2023/11/26 16:58:33;;;;;;;5.90;4.10;;;2.10;99.60;;;;;;5052415;28;20658;-86
2023/11/26 17:01:04;;;;;;;4.87;3.90;;;2.20;99.70;;;;;;5061450;28;20280;-85
2023/11/26 17:03:31;;;;;;;4.50;3.80;;;2.20;99.50;;;;;;5061965;28;20205;-86
2023/11/26 17:06:00;;;;;;;5.63;3.73;;;2.20;99.40;;;;;;5063103;28;20202;-84
2023/11/26 17:08:28;;;;;;;4.77;3.93;;;2.20;99.40;;;;;;5049147;28;20672;-85
2023/11/26 17:10:56;;;;;;;4.87;4.00;;;2.20;99.60;;;;;;5068253;28;20197;-86
2023/11/26 17:13:23;;;;;;;4.93;3.50;;;2.20;99.50;;;;;;5048587;28;20200;-85
2023/11/26 17:15:50;;;;;;;6.77;3.77;;;2.20;99.70;;;;;;5066131;28;20560;-86
2023/11/26 17:18:16;;;;;;;6.40;3.87;;;2.30;99.50;;;;;;5066610;28;20197;-86
2023/11/26 17:20:43;;;;;;;6.83;4.23;;;2.20;99.20;;;;;;5062910;28;20560;-87
2023/11/26 17:23:12;;;;;;;5.03;3.77;;;2.30;99.10;;;;;;5068227;28;20220;-83
2023/11/26 17:25:40;;;;;;;8.87;3.33;;;2.40;99.00;;;;;;5073738;28;20207;-85
2023/11/26 17:28:07;;;;;;;5.03;3.87;;;2.40;98.80;;;;;;5049439;28;20194;-85
2023/11/26 17:30:34;;;;;;;5.33;3.43;;;2.40;98.80;;;;;;5064308;28;20221;-84
2023/11/26 17:33:01;;;;;;;4.77;3.30;;;2.50;99.00;;;;;;5068659;28;20205;-84
2023/11/26 17:35:28;;;;;;;4.70;3.43;;;2.50;98.70;;;;;;5046348;28;20198;-87
2023/11/26 17:37:55;;;;;;;5.10;3.87;;;2.60;98.40;;;;;;5023934;28;20194;-86
2023/11/26 17:40:25;;;;;;;8.10;3.50;;;2.50;98.50;;;;;;5054641;28;20296;-90
2023/11/26 17:42:51;;;;;;;4.17;3.17;;;2.40;98.80;;;;;;5061746;28;20208;-87
2023/11/26 17:45:18;;;;;;;4.47;3.50;;;2.60;98.30;;;;;;5059835;28;20194;-86
2023/11/26 17:47:45;;;;;;;8.97;3.80;;;2.50;98.40;;;;;;5065712;28;20248;-85
2023/11/26 17:50:13;;;;;;;7.07;3.77;;;2.50;98.90;;;;;;5041831;28;20230;-86
2023/11/26 17:52:42;;;;;;;4.50;3.43;;;2.40;99.10;;;;;;5066122;28;20223;-86
2023/11/26 17:55:10;;;;;;;6.03;3.37;;;2.30;99.70;;;;;;5043631;28;20251;-88
2023/11/26 17:57:38;;;;;;;4.03;3.50;;;2.40;99.70;;;;;;5060408;28;20726;-87
2023/11/26 18:00:07;;;;;;;5.83;3.50;;;2.40;99.50;;;;;;5055038;28;20202;-86
2023/11/26 18:02:34;;;;;;;4.87;3.93;;;2.30;99.40;;;;;;5061398;28;20194;-85
2023/11/26 18:05:01;;;;;;;5.10;3.70;;;2.40;99.30;;;;;;5065730;28;20194;-85
2023/11/26 18:07:28;;;;;;;5.27;4.00;;;2.40;99.10;;;;;;5062208;28;20639;-85
2023/11/26 18:09:55;;;;;;;4.70;3.40;;;2.40;99.10;;;;;;5064397;28;20240;-84
2023/11/26 18:12:22;;;;;;;6.23;3.73;;;2.40;99.10;;;;;;5062552;28;20223;-85
2023/11/26 18:14:50;;;;;;;5.17;3.80;;;2.40;99.20;;;;;;5058934;28;20193;-85
2023/11/26 18:17:18;;;;;;;5.43;3.50;;;2.40;99.70;;;;;;5048621;28;20200;-84
2023/11/26 18:19:46;;;;;;;6.43;3.90;;;2.40;99.70;;;;;;5055352;28;20198;-84
2023/11/26 18:22:14;;;;;;;5.77;3.80;;;2.40;99.70;;;;;;5062337;28;20194;-84
2023/11/26 18:24:41;;;;;;;4.20;3.70;;;2.40;99.70;;;;;;5069158;28;20645;-84
2023/11/26 18:27:08;;;;;;;6.53;3.73;;;2.40;99.40;;;;;;5066129;28;20760;-84
2023/11/26 18:29:42;;;;;;;6.30;3.60;;;2.40;99.20;;;;;;5062421;28;20225;-84
2023/11/26 18:32:11;;;;;;;4.70;3.87;;;2.40;99.10;;;;;;5065622;28;20225;-84
2023/11/26 18:34:40;;;;;;;4.63;3.50;;;2.40;99.00;;;;;;5063597;28;20217;-82
2023/11/26 18:37:07;;;;;;;5.97;3.20;;;2.50;99.00;;;;;;5057771;28;20610;-83
2023/11/26 18:39:38;;;;;;;7.63;3.50;;;2.40;99.10;;;;;;5061918;28;20650;-84
2023/11/26 18:42:05;;;;;;;5.30;3.40;;;2.40;99.00;;;;;;5062114;28;20254;-83
2023/11/26 18:44:32;;;;;;;4.80;3.30;;;2.40;99.20;;;;;;5053405;28;20285;-84
2023/11/26 18:46:59;;;;;;;4.50;3.60;;;2.50;99.30;;;;;;5055141;28;20221;-84
2023/11/26 18:49:27;;;;;;;6.43;3.60;;;2.50;99.30;;;;;;5062102;28;20689;-85
2023/11/26 18:51:54;;;;;;;6.60;4.03;;;2.40;99.00;;;;;;5060016;28;20218;-84
2023/11/26 18:54:20;;;;;;;5.37;3.30;;;2.50;98.90;;;;;;5059940;28;20974;-84
2023/11/26 18:56:47;;;;;;;5.40;3.53;;;2.50;98.80;;;;;;5061364;28;20666;-84
2023/11/26 18:59:17;;;;;;;7.83;4.23;;;2.50;99.00;;;;;;5044709;28;20202;-84
2023/11/26 19:01:44;;;;;;;5.27;4.20;;;2.50;98.90;;;;;;5062491;28;21353;-84
2023/11/26 19:04:11;;;;;;;4.73;3.60;;;2.50;98.80;;;;;;5063674;28;20189;-84
2023/11/26 19:06:39;;;;;;;4.77;3.60;;;2.40;99.20;;;;;;5060345;28;20285;-84
2023/11/26 19:09:08;;;;;;;6.70;3.80;;;2.40;99.30;;;;;;5063899;28;20206;-84
2023/11/26 19:11:34;;;;;;;5.97;3.90;;;2.40;99.50;;;;;;5066871;28;20198;-84
2023/11/26 19:14:01;;;;;;;6.10;3.63;;;2.40;99.70;;;;;;5063961;28;20276;-84
2023/11/26 19:16:28;;;;;;;6.63;4.00;;;2.30;99.70;;;;;;5060931;28;20198;-84
2023/11/26 19:18:56;;;;;;;6.03;4.13;;;2.30;99.70;;;;;;5059330;28;20207;-84
2023/11/26 19:21:23;;;;;;;7.23;4.10;;;2.30;99.90;;;;;;5067130;28;20209;-84
2023/11/26 19:23:54;;;;;;;6.27;3.63;;;2.30;99.70;;;;;;5062887;28;20583;-84
2023/11/26 19:26:21;;;;;;;6.03;3.20;;;2.30;99.70;;;;;;5065858;28;20292;-84
2023/11/26 19:28:48;;;;;;;6.20;3.77;;;2.30;99.70;;;;;;5062506;28;20283;-84
2023/11/26 19:31:19;;;;;;;6.17;3.80;;;2.30;99.70;;;;;;5071716;28;20231;-84
2023/11/26 19:33:46;;;;;;;5.40;3.70;;;2.30;99.70;;;;;;5055888;28;20201;-84
2023/11/26 19:36:18;;;;;;;4.83;3.57;;;2.40;99.70;;;;;;5052055;28;20198;-84
2023/11/26 19:38:45;;;;;;;5.63;3.53;;;2.30;99.70;;;;;;5052530;28;20201;-83
2023/11/26 19:41:14;;;;;;;4.30;3.13;;;2.30;99.70;;;;;;5051395;28;20193;-84
2023/11/26 19:43:41;;;;;;;5.17;3.63;;;2.30;99.70;;;;;;5063775;28;20213;-84
2023/11/26 19:46:08;;;;;;;5.57;3.63;;;2.30;99.70;;;;;;5044394;28;20779;-85
2023/11/26 19:48:35;;;;;;;5.23;3.50;;;2.40;99.70;;;;;;5068793;28;20215;-84
2023/11/26 19:51:02;;;;;;;5.33;3.20;;;2.50;99.50;;;;;;5052295;28;20248;-84
2023/11/26 19:53:30;;;;;;;5.13;3.70;;;2.50;99.10;;;;;;5055666;28;20198;-85
2023/11/26 19:56:01;;;;;;;5.60;3.10;;;2.60;99.10;;;;;;5056024;28;20211;-84
2023/11/26 19:58:29;;;;;;;7.00;3.20;;;2.50;99.30;;;;;;5063080;28;20663;-83
2023/11/26 20:00:57;;;;;;;4.03;3.37;;;2.60;99.30;;;;;;5043439;28;20215;-84
2023/11/26 20:03:24;;;;;;;5.00;3.57;;;2.50;99.40;;;;;;5059887;28;20213;-83
2023/11/26 20:05:51;;;;;;;4.40;3.33;;;2.50;99.30;;;;;;5063356;28;20210;-84
2023/11/26 20:08:19;;;;;;;5.27;3.60;;;2.50;99.70;;;;;;5058463;28;20204;-86
2023/11/26 20:10:46;;;;;;;5.40;3.43;;;2.50;99.70;;;;;;5069461;28;20221;-84
2023/11/26 20:13:13;;;;;;;5.67;3.63;;;2.50;99.20;;;;;;5061509;28;20197;-85
2023/11/26 20:15:41;;;;;;;5.00;3.20;;;2.60;99.30;;;;;;5065050;28;20201;-84
2023/11/26 20:18:11;;;;;;;5.07;3.47;;;2.50;99.10;;;;;;5060936;28;20197;-84
2023/11/26 20:20:38;;;;;;;5.50;3.80;;;2.50;99.70;;;;;;5052121;28;20548;-84
2023/11/26 20:23:05;;;;;;;5.33;3.40;;;2.50;99.30;;;;;;5062043;28;20190;-84
2023/11/26 20:25:32;;;;;;;6.00;3.60;;;2.50;99.70;;;;;;5067040;28;20843;-84
2023/11/26 20:28:00;;;;;;;5.30;3.43;;;2.50;99.30;;;;;;5060375;28;20224;-84
2023/11/26 20:30:26;;;;;;;5.93;3.50;;;2.50;99.30;;;;;;5048774;28;20240;-84
2023/11/26 20:32:57;;;;;;;5.37;3.73;;;2.50;99.20;;;;;;5066449;28;20202;-84
2023/11/26 20:35:24;;;;;;;4.43;3.40;;;2.50;99.30;;;;;;5065688;28;20189;-84
2023/11/26 20:37:50;;;;;;;5.07;3.40;;;2.40;99.30;;;;;;5064050;28;20198;-84
2023/11/26 20:40:17;;;;;;;5.03;3.40;;;2.50;99.50;;;;;;5068890;28;20197;-84
2023/11/26 20:42:44;;;;;;;3.80;3.43;;;2.40;99.50;;;;;;5048238;28;20193;-83
2023/11/26 20:45:13;;;;;;;5.63;3.47;;;2.50;99.70;;;;;;5064095;28;20201;-84
2023/11/26 20:47:43;;;;;;;5.67;3.33;;;2.50;99.70;;;;;;5058240;28;20214;-84
2023/11/26 20:50:13;;;;;;;5.30;3.50;;;2.50;99.10;;;;;;5063405;28;20228;-84
2023/11/26 20:52:39;;;;;;;5.83;3.57;;;2.60;98.90;;;;;;5044391;28;20674;-85
2023/11/26 20:55:11;;;;;;;5.00;3.63;;;2.60;98.70;;;;;;5063575;28;20194;-84
2023/11/26 20:57:38;;;;;;;5.17;3.40;;;2.60;98.70;;;;;;5066489;28;20208;-84
2023/11/26 21:00:06;;;;;;;5.37;3.57;;;2.50;98.90;;;;;;5036158;28;20197;-84
2023/11/26 21:02:33;;;;;;;4.23;3.73;;;2.40;99.30;;;;;;5058443;28;20255;-84
2023/11/26 21:05:00;;;;;;;4.07;3.23;;;2.40;99.10;;;;;;5059103;28;20217;-84
2023/11/26 21:07:29;;;;;;;4.33;3.30;;;2.40;99.60;;;;;;5048399;28;20209;-83
2023/11/26 21:09:56;;;;;;;4.97;3.50;;;2.40;99.10;;;;;;5062390;28;20263;-83
2023/11/26 21:12:23;;;;;;;4.90;3.40;;;2.40;99.60;;;;;;5063221;28;20613;-83
2023/11/26 21:14:50;;;;;;;4.70;3.37;;;2.50;99.10;;;;;;5064194;28;20189;-84
2023/11/26 21:17:17;;;;;;;5.00;3.20;;;2.50;99.10;;;;;;5048600;28;20272;-84
2023/11/26 21:19:44;;;;;;;4.43;3.40;;;2.50;98.90;;;;;;5063811;28;20650;-85
2023/11/26 21:22:11;;;;;;;4.60;3.10;;;2.60;99.00;;;;;;5066519;28;20208;-83
2023/11/26 21:24:39;;;;;;;3.57;2.80;;;2.60;98.80;;;;;;5060889;28;20284;-83
2023/11/26 21:27:06;;;;;;;5.00;3.37;;;2.60;98.90;;;;;;5064096;28;20206;-83
2023/11/26 21:29:34;;;;;;;3.87;3.37;;;2.60;98.80;;;;;;5062638;28;20193;-83
2023/11/26 21:32:00;;;;;;;3.40;3.03;;;2.50;98.80;;;;;;5058473;28;20278;-83
2023/11/26 21:34:27;;;;;;;4.27;3.20;;;2.50;99.00;;;;;;5069752;28;20244;-83